sensor_id;sensor_type;location;lat;lon;timestamp;P1;durP1;ratioP1;P2;durP2;ratioP2
16029;SDS011;34770;49.272;11.070;2022-07-03T00:00:54;4.30;;;3.33;;
16029;SDS011;34770;49.272;11.070;2022-07-03T00:03:19;4.40;;;3.38;;
16029;SDS011;34770;49.272;11.070;2022-07-03T00:05:45;3.60;;;3.10;;
16029;SDS011;34770;49.272;11.070;2022-07-03T00:08:10;3.72;;;3.42;;
16029;SDS011;34770;49.272;11.070;2022-07-03T00:10:36;3.47;;;3.17;;
16029;SDS011;34770;49.272;11.070;2022-07-03T00:13:01;3.53;;;3.22;;
16029;SDS011;34770;49.272;11.070;2022-07-03T00:15:26;4.55;;;4.00;;
16029;SDS011;34770;49.272;11.070;2022-07-03T00:17:52;3.50;;;3.15;;
16029;SDS011;34770;49.272;11.070;2022-07-03T00:20:17;4.75;;;3.53;;
16029;SDS011;34770;49.272;11.070;2022-07-03T00:22:44;3.50;;;3.20;;
16029;SDS011;34770;49.272;11.070;2022-07-03T00:25:11;5.18;;;4.25;;
16029;SDS011;34770;49.272;11.070;2022-07-03T00:27:38;4.07;;;3.60;;
16029;SDS011;34770;49.272;11.070;2022-07-03T00:30:04;4.10;;;3.70;;
16029;SDS011;34770;49.272;11.070;2022-07-03T00:32:33;3.65;;;3.35;;
16029;SDS011;34770;49.272;11.070;2022-07-03T00:34:58;3.40;;;3.20;;
16029;SDS011;34770;49.272;11.070;2022-07-03T00:37:25;4.03;;;3.63;;
16029;SDS011;34770;49.272;11.070;2022-07-03T00:39:51;3.63;;;3.33;;
16029;SDS011;34770;49.272;11.070;2022-07-03T00:42:17;4.10;;;3.75;;
16029;SDS011;34770;49.272;11.070;2022-07-03T00:47:10;3.72;;;3.42;;
16029;SDS011;34770;49.272;11.070;2022-07-03T00:49:36;4.93;;;3.67;;
16029;SDS011;34770;49.272;11.070;2022-07-03T00:52:04;5.20;;;3.45;;
16029;SDS011;34770;49.272;11.070;2022-07-03T00:54:34;4.70;;;3.15;;
16029;SDS011;34770;49.272;11.070;2022-07-03T00:57:00;4.20;;;3.70;;
16029;SDS011;34770;49.272;11.070;2022-07-03T00:59:28;3.85;;;3.47;;
16029;SDS011;34770;49.272;11.070;2022-07-03T01:01:58;4.53;;;3.83;;
16029;SDS011;34770;49.272;11.070;2022-07-03T01:07:25;3.53;;;3.22;;
16029;SDS011;34770;49.272;11.070;2022-07-03T01:10:04;3.80;;;3.38;;
16029;SDS011;34770;49.272;11.070;2022-07-03T01:12:51;3.22;;;3.03;;
16029;SDS011;34770;49.272;11.070;2022-07-03T01:26:31;4.95;;;3.08;;
16029;SDS011;34770;49.272;11.070;2022-07-03T01:29:03;3.45;;;3.20;;
16029;SDS011;34770;49.272;11.070;2022-07-03T01:31:33;3.72;;;3.33;;
16029;SDS011;34770;49.272;11.070;2022-07-03T01:34:01;4.63;;;3.70;;
16029;SDS011;34770;49.272;11.070;2022-07-03T01:36:30;3.70;;;3.40;;
16029;SDS011;34770;49.272;11.070;2022-07-03T01:38:57;4.20;;;3.80;;
16029;SDS011;34770;49.272;11.070;2022-07-03T01:41:26;4.28;;;3.88;;
16029;SDS011;34770;49.272;11.070;2022-07-03T01:43:58;3.92;;;3.63;;
16029;SDS011;34770;49.272;11.070;2022-07-03T01:46:27;5.95;;;3.30;;
16029;SDS011;34770;49.272;11.070;2022-07-03T01:48:54;3.95;;;3.65;;
16029;SDS011;34770;49.272;11.070;2022-07-03T01:51:20;3.90;;;3.60;;
16029;SDS011;34770;49.272;11.070;2022-07-03T01:53:48;3.65;;;3.35;;
16029;SDS011;34770;49.272;11.070;2022-07-03T01:56:18;4.22;;;3.83;;
16029;SDS011;34770;49.272;11.070;2022-07-03T01:58:46;3.67;;;3.38;;
16029;SDS011;34770;49.272;11.070;2022-07-03T02:03:59;4.07;;;3.67;;
16029;SDS011;34770;49.272;11.070;2022-07-03T02:07:05;3.50;;;3.20;;
16029;SDS011;34770;49.272;11.070;2022-07-03T02:09:58;4.40;;;3.92;;
16029;SDS011;34770;49.272;11.070;2022-07-03T02:12:37;3.80;;;3.50;;
16029;SDS011;34770;49.272;11.070;2022-07-03T02:15:07;3.72;;;3.30;;
16029;SDS011;34770;49.272;11.070;2022-07-03T02:17:38;4.07;;;3.53;;
16029;SDS011;34770;49.272;11.070;2022-07-03T02:20:08;4.07;;;3.78;;
16029;SDS011;34770;49.272;11.070;2022-07-03T02:22:41;4.00;;;3.60;;
16029;SDS011;34770;49.272;11.070;2022-07-03T02:25:51;4.10;;;3.70;;
16029;SDS011;34770;49.272;11.070;2022-07-03T02:30:43;3.42;;;3.13;;
16029;SDS011;34770;49.272;11.070;2022-07-03T02:33:13;5.22;;;3.10;;
16029;SDS011;34770;49.272;11.070;2022-07-03T02:35:44;3.90;;;3.40;;
16029;SDS011;34770;49.272;11.070;2022-07-03T02:38:17;3.85;;;3.55;;
16029;SDS011;34770;49.272;11.070;2022-07-03T02:40:57;3.47;;;3.15;;
16029;SDS011;34770;49.272;11.070;2022-07-03T02:46:05;4.13;;;3.72;;
16029;SDS011;34770;49.272;11.070;2022-07-03T02:48:56;4.22;;;3.35;;
16029;SDS011;34770;49.272;11.070;2022-07-03T02:51:27;4.43;;;3.72;;
16029;SDS011;34770;49.272;11.070;2022-07-03T02:54:02;3.65;;;3.38;;
16029;SDS011;34770;49.272;11.070;2022-07-03T02:59:14;3.67;;;3.33;;
16029;SDS011;34770;49.272;11.070;2022-07-03T03:01:47;3.60;;;3.30;;
16029;SDS011;34770;49.272;11.070;2022-07-03T03:04:30;3.42;;;3.13;;
16029;SDS011;34770;49.272;11.070;2022-07-03T03:07:07;3.45;;;3.15;;
16029;SDS011;34770;49.272;11.070;2022-07-03T03:09:55;4.25;;;3.85;;
16029;SDS011;34770;49.272;11.070;2022-07-03T03:12:27;4.90;;;3.53;;
16029;SDS011;34770;49.272;11.070;2022-07-03T03:14:59;4.30;;;3.90;;
16029;SDS011;34770;49.272;11.070;2022-07-03T03:17:27;3.53;;;3.05;;
16029;SDS011;34770;49.272;11.070;2022-07-03T03:19:59;5.53;;;3.65;;
16029;SDS011;34770;49.272;11.070;2022-07-03T03:24:57;3.60;;;3.30;;
16029;SDS011;34770;49.272;11.070;2022-07-03T03:27:23;4.53;;;3.63;;
16029;SDS011;34770;49.272;11.070;2022-07-03T03:29:48;4.13;;;3.72;;
16029;SDS011;34770;49.272;11.070;2022-07-03T03:32:15;3.70;;;3.40;;
16029;SDS011;34770;49.272;11.070;2022-07-03T03:34:41;3.38;;;3.08;;
16029;SDS011;34770;49.272;11.070;2022-07-03T03:37:07;4.40;;;4.00;;
16029;SDS011;34770;49.272;11.070;2022-07-03T03:39:33;4.90;;;3.67;;
16029;SDS011;34770;49.272;11.070;2022-07-03T03:41:59;3.03;;;2.83;;
16029;SDS011;34770;49.272;11.070;2022-07-03T03:44:26;3.55;;;3.25;;
16029;SDS011;34770;49.272;11.070;2022-07-03T03:46:51;3.63;;;3.33;;
16029;SDS011;34770;49.272;11.070;2022-07-03T03:49:17;3.83;;;3.45;;
16029;SDS011;34770;49.272;11.070;2022-07-03T03:51:42;3.90;;;3.60;;
16029;SDS011;34770;49.272;11.070;2022-07-03T03:54:09;4.18;;;3.30;;
16029;SDS011;34770;49.272;11.070;2022-07-03T03:56:34;3.88;;;3.53;;
16029;SDS011;34770;49.272;11.070;2022-07-03T03:59:00;6.10;;;3.55;;
16029;SDS011;34770;49.272;11.070;2022-07-03T04:01:25;3.75;;;3.45;;
16029;SDS011;34770;49.272;11.070;2022-07-03T04:03:50;3.90;;;3.50;;
16029;SDS011;34770;49.272;11.070;2022-07-03T04:06:18;3.97;;;3.55;;
16029;SDS011;34770;49.272;11.070;2022-07-03T04:08:44;3.60;;;3.30;;
16029;SDS011;34770;49.272;11.070;2022-07-03T04:11:09;3.92;;;3.63;;
16029;SDS011;34770;49.272;11.070;2022-07-03T04:13:35;7.55;;;3.72;;
16029;SDS011;34770;49.272;11.070;2022-07-03T04:16:00;3.25;;;3.05;;
16029;SDS011;34770;49.272;11.070;2022-07-03T04:18:25;4.18;;;3.80;;
16029;SDS011;34770;49.272;11.070;2022-07-03T04:20:51;3.53;;;3.22;;
16029;SDS011;34770;49.272;11.070;2022-07-03T04:23:17;3.72;;;3.38;;
16029;SDS011;34770;49.272;11.070;2022-07-03T04:25:42;3.15;;;2.95;;
16029;SDS011;34770;49.272;11.070;2022-07-03T04:28:08;3.92;;;3.40;;
16029;SDS011;34770;49.272;11.070;2022-07-03T04:30:34;3.67;;;3.38;;
16029;SDS011;34770;49.272;11.070;2022-07-03T04:32:59;5.47;;;3.70;;
16029;SDS011;34770;49.272;11.070;2022-07-03T04:35:25;3.38;;;3.08;;
16029;SDS011;34770;49.272;11.070;2022-07-03T04:37:50;3.20;;;3.00;;
16029;SDS011;34770;49.272;11.070;2022-07-03T04:40:15;3.47;;;3.17;;
16029;SDS011;34770;49.272;11.070;2022-07-03T04:42:41;3.30;;;3.10;;
16029;SDS011;34770;49.272;11.070;2022-07-03T04:45:06;3.67;;;2.92;;
16029;SDS011;34770;49.272;11.070;2022-07-03T04:47:32;4.03;;;3.53;;
16029;SDS011;34770;49.272;11.070;2022-07-03T04:49:58;3.53;;;3.22;;
16029;SDS011;34770;49.272;11.070;2022-07-03T04:52:23;3.60;;;3.30;;
16029;SDS011;34770;49.272;11.070;2022-07-03T04:54:49;4.03;;;3.47;;
16029;SDS011;34770;49.272;11.070;2022-07-03T04:57:14;3.25;;;2.95;;
16029;SDS011;34770;49.272;11.070;2022-07-03T04:59:40;3.60;;;3.30;;
16029;SDS011;34770;49.272;11.070;2022-07-03T05:02:05;3.13;;;2.92;;
16029;SDS011;34770;49.272;11.070;2022-07-03T05:04:31;3.65;;;3.35;;
16029;SDS011;34770;49.272;11.070;2022-07-03T05:06:56;3.60;;;3.30;;
16029;SDS011;34770;49.272;11.070;2022-07-03T05:09:21;2.83;;;2.60;;
16029;SDS011;34770;49.272;11.070;2022-07-03T05:11:47;3.60;;;3.30;;
16029;SDS011;34770;49.272;11.070;2022-07-03T05:14:12;3.40;;;3.10;;
16029;SDS011;34770;49.272;11.070;2022-07-03T05:16:38;3.80;;;3.50;;
16029;SDS011;34770;49.272;11.070;2022-07-03T05:19:04;3.53;;;3.22;;
16029;SDS011;34770;49.272;11.070;2022-07-03T05:21:29;4.13;;;3.33;;
16029;SDS011;34770;49.272;11.070;2022-07-03T05:23:55;3.55;;;3.25;;
16029;SDS011;34770;49.272;11.070;2022-07-03T05:26:20;3.42;;;3.13;;
16029;SDS011;34770;49.272;11.070;2022-07-03T05:28:46;6.05;;;3.47;;
16029;SDS011;34770;49.272;11.070;2022-07-03T05:31:11;3.72;;;3.38;;
16029;SDS011;34770;49.272;11.070;2022-07-03T05:33:37;3.75;;;3.38;;
16029;SDS011;34770;49.272;11.070;2022-07-03T05:36:03;3.58;;;3.15;;
16029;SDS011;34770;49.272;11.070;2022-07-03T05:38:29;4.60;;;2.90;;
16029;SDS011;34770;49.272;11.070;2022-07-03T05:41:13;4.05;;;3.15;;
16029;SDS011;34770;49.272;11.070;2022-07-03T05:43:38;3.97;;;3.17;;
16029;SDS011;34770;49.272;11.070;2022-07-03T05:46:03;7.00;;;3.30;;
16029;SDS011;34770;49.272;11.070;2022-07-03T05:48:29;4.22;;;2.83;;
16029;SDS011;34770;49.272;11.070;2022-07-03T05:50:54;2.95;;;2.75;;
16029;SDS011;34770;49.272;11.070;2022-07-03T05:53:20;3.88;;;3.05;;
16029;SDS011;34770;49.272;11.070;2022-07-03T05:55:45;3.47;;;3.17;;
16029;SDS011;34770;49.272;11.070;2022-07-03T05:58:10;5.72;;;3.00;;
16029;SDS011;34770;49.272;11.070;2022-07-03T06:00:36;3.20;;;2.90;;
16029;SDS011;34770;49.272;11.070;2022-07-03T06:03:01;2.70;;;2.50;;
16029;SDS011;34770;49.272;11.070;2022-07-03T06:05:27;5.05;;;2.90;;
16029;SDS011;34770;49.272;11.070;2022-07-03T06:07:53;3.15;;;2.38;;
16029;SDS011;34770;49.272;11.070;2022-07-03T06:10:18;3.55;;;2.67;;
16029;SDS011;34770;49.272;11.070;2022-07-03T06:12:44;3.55;;;3.25;;
16029;SDS011;34770;49.272;11.070;2022-07-03T06:15:10;3.17;;;2.47;;
16029;SDS011;34770;49.272;11.070;2022-07-03T06:17:35;2.90;;;2.70;;
16029;SDS011;34770;49.272;11.070;2022-07-03T06:20:01;4.05;;;2.55;;
16029;SDS011;34770;49.272;11.070;2022-07-03T06:22:27;3.60;;;2.80;;
16029;SDS011;34770;49.272;11.070;2022-07-03T06:24:53;3.13;;;2.60;;
16029;SDS011;34770;49.272;11.070;2022-07-03T06:27:18;2.97;;;2.55;;
16029;SDS011;34770;49.272;11.070;2022-07-03T06:29:44;2.58;;;2.38;;
16029;SDS011;34770;49.272;11.070;2022-07-03T06:32:09;2.85;;;2.65;;
16029;SDS011;34770;49.272;11.070;2022-07-03T06:34:35;2.08;;;1.88;;
16029;SDS011;34770;49.272;11.070;2022-07-03T06:37:00;2.53;;;2.03;;
16029;SDS011;34770;49.272;11.070;2022-07-03T06:39:25;2.38;;;2.05;;
16029;SDS011;34770;49.272;11.070;2022-07-03T06:41:51;3.88;;;2.00;;
16029;SDS011;34770;49.272;11.070;2022-07-03T06:44:16;2.30;;;2.15;;
16029;SDS011;34770;49.272;11.070;2022-07-03T06:46:42;2.00;;;1.80;;
16029;SDS011;34770;49.272;11.070;2022-07-03T06:49:07;2.88;;;2.40;;
16029;SDS011;34770;49.272;11.070;2022-07-03T06:51:33;2.08;;;1.83;;
16029;SDS011;34770;49.272;11.070;2022-07-03T06:53:59;2.15;;;1.90;;
16029;SDS011;34770;49.272;11.070;2022-07-03T06:56:24;2.08;;;1.60;;
16029;SDS011;34770;49.272;11.070;2022-07-03T06:58:50;4.70;;;2.10;;
16029;SDS011;34770;49.272;11.070;2022-07-03T07:01:15;2.42;;;1.95;;
16029;SDS011;34770;49.272;11.070;2022-07-03T07:03:41;2.53;;;2.15;;
16029;SDS011;34770;49.272;11.070;2022-07-03T07:06:06;1.67;;;1.58;;
16029;SDS011;34770;49.272;11.070;2022-07-03T07:08:31;2.42;;;2.10;;
16029;SDS011;34770;49.272;11.070;2022-07-03T07:10:57;2.08;;;1.80;;
16029;SDS011;34770;49.272;11.070;2022-07-03T07:13:22;2.88;;;1.88;;
16029;SDS011;34770;49.272;11.070;2022-07-03T07:15:48;2.53;;;1.80;;
16029;SDS011;34770;49.272;11.070;2022-07-03T07:18:13;1.98;;;1.70;;
16029;SDS011;34770;49.272;11.070;2022-07-03T07:20:38;2.25;;;1.65;;
16029;SDS011;34770;49.272;11.070;2022-07-03T07:23:05;2.20;;;2.00;;
16029;SDS011;34770;49.272;11.070;2022-07-03T07:25:31;3.05;;;1.85;;
16029;SDS011;34770;49.272;11.070;2022-07-03T07:27:56;3.33;;;1.80;;
16029;SDS011;34770;49.272;11.070;2022-07-03T07:30:21;1.70;;;1.60;;
16029;SDS011;34770;49.272;11.070;2022-07-03T07:32:47;2.72;;;1.60;;
16029;SDS011;34770;49.272;11.070;2022-07-03T07:35:12;2.88;;;1.20;;
16029;SDS011;34770;49.272;11.070;2022-07-03T07:37:38;4.90;;;1.40;;
16029;SDS011;34770;49.272;11.070;2022-07-03T07:40:04;3.22;;;1.35;;
16029;SDS011;34770;49.272;11.070;2022-07-03T07:42:29;1.63;;;1.52;;
16029;SDS011;34770;49.272;11.070;2022-07-03T07:44:55;1.83;;;1.60;;
16029;SDS011;34770;49.272;11.070;2022-07-03T07:47:20;1.85;;;1.30;;
16029;SDS011;34770;49.272;11.070;2022-07-03T07:49:46;2.15;;;1.95;;
16029;SDS011;34770;49.272;11.070;2022-07-03T07:52:12;3.28;;;1.67;;
16029;SDS011;34770;49.272;11.070;2022-07-03T07:54:37;1.60;;;1.50;;
16029;SDS011;34770;49.272;11.070;2022-07-03T07:57:03;1.50;;;1.40;;
16029;SDS011;34770;49.272;11.070;2022-07-03T07:59:28;1.60;;;1.30;;
16029;SDS011;34770;49.272;11.070;2022-07-03T08:01:54;1.25;;;1.15;;
16029;SDS011;34770;49.272;11.070;2022-07-03T08:04:38;1.60;;;1.50;;
16029;SDS011;34770;49.272;11.070;2022-07-03T08:07:22;1.80;;;1.10;;
16029;SDS011;34770;49.272;11.070;2022-07-03T08:09:47;1.85;;;1.20;;
16029;SDS011;34770;49.272;11.070;2022-07-03T08:12:12;1.45;;;1.13;;
16029;SDS011;34770;49.272;11.070;2022-07-03T08:14:38;1.88;;;1.10;;
16029;SDS011;34770;49.272;11.070;2022-07-03T08:17:04;1.27;;;1.05;;
16029;SDS011;34770;49.272;11.070;2022-07-03T08:19:30;3.17;;;1.27;;
16029;SDS011;34770;49.272;11.070;2022-07-03T08:21:56;1.02;;;1.00;;
16029;SDS011;34770;49.272;11.070;2022-07-03T08:24:21;1.40;;;1.30;;
16029;SDS011;34770;49.272;11.070;2022-07-03T08:26:46;1.35;;;1.25;;
16029;SDS011;34770;49.272;11.070;2022-07-03T08:29:12;2.70;;;1.05;;
16029;SDS011;34770;49.272;11.070;2022-07-03T08:31:37;1.40;;;1.30;;
16029;SDS011;34770;49.272;11.070;2022-07-03T08:34:03;2.63;;;1.27;;
16029;SDS011;34770;49.272;11.070;2022-07-03T08:36:28;1.20;;;1.10;;
16029;SDS011;34770;49.272;11.070;2022-07-03T08:38:54;2.40;;;1.25;;
16029;SDS011;34770;49.272;11.070;2022-07-03T08:41:21;1.58;;;1.23;;
16029;SDS011;34770;49.272;11.070;2022-07-03T08:43:50;1.20;;;1.13;;
16029;SDS011;34770;49.272;11.070;2022-07-03T08:46:16;1.73;;;1.10;;
16029;SDS011;34770;49.272;11.070;2022-07-03T08:48:43;2.55;;;1.13;;
16029;SDS011;34770;49.272;11.070;2022-07-03T08:51:08;2.45;;;1.00;;
16029;SDS011;34770;49.272;11.070;2022-07-03T08:53:35;0.80;;;0.80;;
16029;SDS011;34770;49.272;11.070;2022-07-03T08:56:02;1.45;;;1.08;;
16029;SDS011;34770;49.272;11.070;2022-07-03T08:58:29;0.85;;;0.80;;
16029;SDS011;34770;49.272;11.070;2022-07-03T09:00:56;1.42;;;0.95;;
16029;SDS011;34770;49.272;11.070;2022-07-03T09:03:22;3.92;;;1.02;;
16029;SDS011;34770;49.272;11.070;2022-07-03T09:05:49;1.15;;;1.05;;
16029;SDS011;34770;49.272;11.070;2022-07-03T09:08:15;3.60;;;0.73;;
16029;SDS011;34770;49.272;11.070;2022-07-03T09:10:43;1.45;;;1.10;;
16029;SDS011;34770;49.272;11.070;2022-07-03T09:13:10;1.98;;;1.23;;
16029;SDS011;34770;49.272;11.070;2022-07-03T09:15:36;1.00;;;0.80;;
16029;SDS011;34770;49.272;11.070;2022-07-03T09:18:05;1.50;;;0.88;;
16029;SDS011;34770;49.272;11.070;2022-07-03T09:20:36;3.30;;;0.95;;
16029;SDS011;34770;49.272;11.070;2022-07-03T09:25:58;0.85;;;0.80;;
16029;SDS011;34770;49.272;11.070;2022-07-03T09:28:41;1.38;;;1.27;;
16029;SDS011;34770;49.272;11.070;2022-07-03T09:31:12;0.90;;;0.80;;
16029;SDS011;34770;49.272;11.070;2022-07-03T09:33:49;0.80;;;0.80;;
16029;SDS011;34770;49.272;11.070;2022-07-03T09:36:16;2.22;;;0.70;;
16029;SDS011;34770;49.272;11.070;2022-07-03T09:38:44;1.33;;;1.20;;
16029;SDS011;34770;49.272;11.070;2022-07-03T09:41:10;0.68;;;0.68;;
16029;SDS011;34770;49.272;11.070;2022-07-03T09:43:36;2.60;;;0.80;;
16029;SDS011;34770;49.272;11.070;2022-07-03T09:46:07;1.13;;;1.00;;
16029;SDS011;34770;49.272;11.070;2022-07-03T09:48:33;1.40;;;0.70;;
16029;SDS011;34770;49.272;11.070;2022-07-03T09:51:19;1.33;;;1.23;;
16029;SDS011;34770;49.272;11.070;2022-07-03T09:53:57;2.20;;;0.85;;
16029;SDS011;34770;49.272;11.070;2022-07-03T09:56:27;1.05;;;0.93;;
16029;SDS011;34770;49.272;11.070;2022-07-03T09:59:00;0.98;;;0.77;;
16029;SDS011;34770;49.272;11.070;2022-07-03T10:01:26;0.65;;;0.60;;
16029;SDS011;34770;49.272;11.070;2022-07-03T10:03:52;1.58;;;0.90;;
16029;SDS011;34770;49.272;11.070;2022-07-03T10:06:19;0.90;;;0.90;;
16029;SDS011;34770;49.272;11.070;2022-07-03T10:08:44;2.70;;;1.95;;
16029;SDS011;34770;49.272;11.070;2022-07-03T10:11:11;1.10;;;0.90;;
16029;SDS011;34770;49.272;11.070;2022-07-03T10:13:38;1.90;;;1.17;;
16029;SDS011;34770;49.272;11.070;2022-07-03T10:16:05;1.42;;;0.70;;
16029;SDS011;34770;49.272;11.070;2022-07-03T10:18:32;2.08;;;1.50;;
16029;SDS011;34770;49.272;11.070;2022-07-03T10:21:01;3.83;;;3.22;;
16029;SDS011;34770;49.272;11.070;2022-07-03T10:23:32;2.30;;;1.60;;
16029;SDS011;34770;49.272;11.070;2022-07-03T10:25:57;2.25;;;0.80;;
16029;SDS011;34770;49.272;11.070;2022-07-03T10:28:23;1.17;;;0.70;;
16029;SDS011;34770;49.272;11.070;2022-07-03T10:30:49;1.73;;;1.23;;
16029;SDS011;34770;49.272;11.070;2022-07-03T10:33:15;1.15;;;0.90;;
16029;SDS011;34770;49.272;11.070;2022-07-03T10:35:48;3.08;;;0.80;;
16029;SDS011;34770;49.272;11.070;2022-07-03T10:38:18;0.88;;;0.80;;
16029;SDS011;34770;49.272;11.070;2022-07-03T10:40:59;0.98;;;0.82;;
16029;SDS011;34770;49.272;11.070;2022-07-03T10:43:48;1.15;;;0.80;;
16029;SDS011;34770;49.272;11.070;2022-07-03T10:46:34;1.10;;;0.70;;
16029;SDS011;34770;49.272;11.070;2022-07-03T10:49:09;1.17;;;0.60;;
16029;SDS011;34770;49.272;11.070;2022-07-03T11:07:24;0.70;;;0.57;;
16029;SDS011;34770;49.272;11.070;2022-07-03T11:18:28;0.60;;;0.60;;
16029;SDS011;34770;49.272;11.070;2022-07-03T11:23:39;0.70;;;0.70;;
16029;SDS011;34770;49.272;11.070;2022-07-03T11:36:10;0.80;;;0.65;;
16029;SDS011;34770;49.272;11.070;2022-07-03T11:38:48;0.73;;;0.50;;
16029;SDS011;34770;49.272;11.070;2022-07-03T11:41:20;0.63;;;0.63;;
16029;SDS011;34770;49.272;11.070;2022-07-03T11:43:50;1.35;;;0.57;;
16029;SDS011;34770;49.272;11.070;2022-07-03T11:46:18;0.60;;;0.60;;
16029;SDS011;34770;49.272;11.070;2022-07-03T11:48:49;0.60;;;0.60;;
16029;SDS011;34770;49.272;11.070;2022-07-03T11:51:14;0.52;;;0.40;;
16029;SDS011;34770;49.272;11.070;2022-07-03T11:53:41;0.60;;;0.60;;
16029;SDS011;34770;49.272;11.070;2022-07-03T11:56:07;0.45;;;0.45;;
16029;SDS011;34770;49.272;11.070;2022-07-03T12:04:13;0.47;;;0.47;;
16029;SDS011;34770;49.272;11.070;2022-07-03T12:12:10;0.98;;;0.60;;
16029;SDS011;34770;49.272;11.070;2022-07-03T12:14:37;2.25;;;0.55;;
16029;SDS011;34770;49.272;11.070;2022-07-03T12:17:14;0.70;;;0.70;;
16029;SDS011;34770;49.272;11.070;2022-07-03T12:19:52;0.98;;;0.50;;
16029;SDS011;34770;49.272;11.070;2022-07-03T12:24:56;0.60;;;0.50;;
16029;SDS011;34770;49.272;11.070;2022-07-03T12:27:22;1.70;;;0.50;;
16029;SDS011;34770;49.272;11.070;2022-07-03T12:29:48;0.63;;;0.63;;
16029;SDS011;34770;49.272;11.070;2022-07-03T12:32:14;1.38;;;0.60;;
16029;SDS011;34770;49.272;11.070;2022-07-03T12:34:40;0.75;;;0.60;;
16029;SDS011;34770;49.272;11.070;2022-07-03T12:37:05;0.70;;;0.60;;
16029;SDS011;34770;49.272;11.070;2022-07-03T12:39:47;0.60;;;0.60;;
16029;SDS011;34770;49.272;11.070;2022-07-03T12:42:20;0.63;;;0.55;;
16029;SDS011;34770;49.272;11.070;2022-07-03T12:44:59;0.75;;;0.75;;
16029;SDS011;34770;49.272;11.070;2022-07-03T12:47:26;2.30;;;0.98;;
16029;SDS011;34770;49.272;11.070;2022-07-03T12:49:54;0.55;;;0.55;;
16029;SDS011;34770;49.272;11.070;2022-07-03T12:52:21;0.75;;;0.65;;
16029;SDS011;34770;49.272;11.070;2022-07-03T12:54:47;3.13;;;0.80;;
16029;SDS011;34770;49.272;11.070;2022-07-03T12:57:12;0.50;;;0.50;;
16029;SDS011;34770;49.272;11.070;2022-07-03T13:02:33;1.75;;;0.60;;
16029;SDS011;34770;49.272;11.070;2022-07-03T13:04:59;1.23;;;0.60;;
16029;SDS011;34770;49.272;11.070;2022-07-03T13:07:29;0.63;;;0.52;;
16029;SDS011;34770;49.272;11.070;2022-07-03T13:09:58;0.60;;;0.60;;
16029;SDS011;34770;49.272;11.070;2022-07-03T13:12:25;0.75;;;0.70;;
16029;SDS011;34770;49.272;11.070;2022-07-03T13:14:57;0.80;;;0.65;;
16029;SDS011;34770;49.272;11.070;2022-07-03T13:18:11;0.77;;;0.70;;
16029;SDS011;34770;49.272;11.070;2022-07-03T13:20:22;5.50;;;4.65;;
16029;SDS011;34770;49.272;11.070;2022-07-03T13:22:53;0.77;;;0.70;;
16029;SDS011;34770;49.272;11.070;2022-07-03T13:25:20;1.40;;;0.77;;
16029;SDS011;34770;49.272;11.070;2022-07-03T13:27:46;1.17;;;1.02;;
16029;SDS011;34770;49.272;11.070;2022-07-03T13:30:14;1.25;;;0.80;;
16029;SDS011;34770;49.272;11.070;2022-07-03T13:32:41;0.63;;;0.60;;
16029;SDS011;34770;49.272;11.070;2022-07-03T13:35:07;1.67;;;1.10;;
16029;SDS011;34770;49.272;11.070;2022-07-03T13:37:33;1.52;;;1.42;;
16029;SDS011;34770;49.272;11.070;2022-07-03T13:40:00;4.03;;;2.40;;
16029;SDS011;34770;49.272;11.070;2022-07-03T13:42:25;2.47;;;0.77;;
16029;SDS011;34770;49.272;11.070;2022-07-03T13:44:51;0.73;;;0.70;;
16029;SDS011;34770;49.272;11.070;2022-07-03T13:47:16;1.50;;;0.70;;
16029;SDS011;34770;49.272;11.070;2022-07-03T13:49:42;2.92;;;1.95;;
16029;SDS011;34770;49.272;11.070;2022-07-03T13:52:07;1.52;;;0.90;;
16029;SDS011;34770;49.272;11.070;2022-07-03T13:54:32;3.08;;;1.00;;
16029;SDS011;34770;49.272;11.070;2022-07-03T13:56:58;2.08;;;1.40;;
16029;SDS011;34770;49.272;11.070;2022-07-03T13:59:24;1.67;;;0.90;;
16029;SDS011;34770;49.272;11.070;2022-07-03T14:01:49;1.40;;;0.80;;
16029;SDS011;34770;49.272;11.070;2022-07-03T14:04:15;1.35;;;0.80;;
16029;SDS011;34770;49.272;11.070;2022-07-03T14:06:40;1.77;;;1.00;;
16029;SDS011;34770;49.272;11.070;2022-07-03T14:09:05;5.10;;;1.35;;
16029;SDS011;34770;49.272;11.070;2022-07-03T14:11:31;2.75;;;0.80;;
16029;SDS011;34770;49.272;11.070;2022-07-03T14:13:56;1.25;;;0.50;;
16029;SDS011;34770;49.272;11.070;2022-07-03T14:16:22;3.35;;;0.52;;
16029;SDS011;34770;49.272;11.070;2022-07-03T14:18:48;2.63;;;0.85;;
16029;SDS011;34770;49.272;11.070;2022-07-03T14:21:13;0.65;;;0.50;;
16029;SDS011;34770;49.272;11.070;2022-07-03T14:23:39;0.80;;;0.60;;
16029;SDS011;34770;49.272;11.070;2022-07-03T14:26:04;0.50;;;0.50;;
16029;SDS011;34770;49.272;11.070;2022-07-03T14:28:30;0.88;;;0.50;;
16029;SDS011;34770;49.272;11.070;2022-07-03T14:31:14;1.13;;;0.52;;
16029;SDS011;34770;49.272;11.070;2022-07-03T14:33:48;0.98;;;0.70;;
16029;SDS011;34770;49.272;11.070;2022-07-03T14:36:14;1.73;;;0.40;;
16029;SDS011;34770;49.272;11.070;2022-07-03T14:38:40;1.88;;;0.65;;
16029;SDS011;34770;49.272;11.070;2022-07-03T14:41:05;1.20;;;0.60;;
16029;SDS011;34770;49.272;11.070;2022-07-03T14:43:30;0.80;;;0.60;;
16029;SDS011;34770;49.272;11.070;2022-07-03T14:45:56;0.60;;;0.52;;
16029;SDS011;34770;49.272;11.070;2022-07-03T14:48:21;0.40;;;0.40;;
16029;SDS011;34770;49.272;11.070;2022-07-03T14:50:47;0.90;;;0.63;;
16029;SDS011;34770;49.272;11.070;2022-07-03T14:53:12;0.70;;;0.50;;
16029;SDS011;34770;49.272;11.070;2022-07-03T14:55:39;3.25;;;0.63;;
16029;SDS011;34770;49.272;11.070;2022-07-03T14:58:15;0.77;;;0.60;;
16029;SDS011;34770;49.272;11.070;2022-07-03T15:00:48;0.60;;;0.60;;
16029;SDS011;34770;49.272;11.070;2022-07-03T15:03:16;0.50;;;0.50;;
16029;SDS011;34770;49.272;11.070;2022-07-03T15:05:52;0.45;;;0.45;;
16029;SDS011;34770;49.272;11.070;2022-07-03T15:10:55;1.15;;;0.70;;
16029;SDS011;34770;49.272;11.070;2022-07-03T15:14:01;0.50;;;0.50;;
16029;SDS011;34770;49.272;11.070;2022-07-03T15:16:29;2.40;;;0.55;;
16029;SDS011;34770;49.272;11.070;2022-07-03T15:18:57;0.60;;;0.60;;
16029;SDS011;34770;49.272;11.070;2022-07-03T15:21:24;0.77;;;0.70;;
16029;SDS011;34770;49.272;11.070;2022-07-03T15:24:00;1.45;;;0.80;;
16029;SDS011;34770;49.272;11.070;2022-07-03T15:26:28;0.40;;;0.40;;
16029;SDS011;34770;49.272;11.070;2022-07-03T15:28:55;1.27;;;0.57;;
16029;SDS011;34770;49.272;11.070;2022-07-03T15:31:23;1.05;;;0.60;;
16029;SDS011;34770;49.272;11.070;2022-07-03T15:33:51;0.60;;;0.60;;
16029;SDS011;34770;49.272;11.070;2022-07-03T15:36:16;1.15;;;0.60;;
16029;SDS011;34770;49.272;11.070;2022-07-03T15:38:47;0.80;;;0.70;;
16029;SDS011;34770;49.272;11.070;2022-07-03T15:41:25;0.60;;;0.60;;
16029;SDS011;34770;49.272;11.070;2022-07-03T15:54:26;0.88;;;0.68;;
16029;SDS011;34770;49.272;11.070;2022-07-03T15:56:58;1.52;;;0.50;;
16029;SDS011;34770;49.272;11.070;2022-07-03T15:59:27;0.63;;;0.63;;
16029;SDS011;34770;49.272;11.070;2022-07-03T16:01:57;3.08;;;0.60;;
16029;SDS011;34770;49.272;11.070;2022-07-03T16:07:27;0.70;;;0.50;;
16029;SDS011;34770;49.272;11.070;2022-07-03T16:09:55;1.33;;;0.63;;
16029;SDS011;34770;49.272;11.070;2022-07-03T16:12:22;1.02;;;0.80;;
16029;SDS011;34770;49.272;11.070;2022-07-03T16:14:49;1.77;;;0.57;;
16029;SDS011;34770;49.272;11.070;2022-07-03T16:17:16;0.63;;;0.50;;
16029;SDS011;34770;49.272;11.070;2022-07-03T16:19:47;1.25;;;0.50;;
16029;SDS011;34770;49.272;11.070;2022-07-03T16:22:14;2.20;;;0.70;;